KRSL

Details ICAO KRSL
Name RUSSELL MUNI
Region United States
Timezone America/Chicago (UTC-6.0)
Plans Departing 0
Arriving 1
Stats Elevation 1,862 ft / 568 m (AMSL)
Location 38.872235° -98.812578°
Runways 2
Magnetic Variation 4.563° E
Sunrise 2017-12-13 13:46:48 UTC / 2017-12-13 07:46:48 Local
Sunset 2017-12-13 23:15:11 UTC / 2017-12-13 17:15:11 Local
Advertisement - Login to hide

Runways

ID Width Length Bearing (true) Bearing (mag) Surface Threshold Offset Overrun Length
03 300 ft / 91 m 1,603 ft / 489 m 29.90° 25.34° Dirt 0 ft / 0 m 0 ft / 0 m
17 75 ft / 23 m 5,010 ft / 1,527 m 173.77° 169.21° Concrete 0 ft / 0 m 0 ft / 0 m
21 300 ft / 91 m 1,603 ft / 489 m 209.91° 205.35° Dirt 0 ft / 0 m 0 ft / 0 m
35 75 ft / 23 m 5,010 ft / 1,527 m 353.77° 349.21° Concrete 0 ft / 0 m 0 ft / 0 m

Map

Weather


0- 5 10 15 20 25 30 35+ Temperature / ° C

Clouds and Precipitation
Forecast for 2017-12-14 06:00 UTC. Updated an hour ago

Ground ~20,000 ft ~40,000 ft Winds

METAR

KRSL 140553Z AUTO 32010KT 10SM CLR M01/M06 A3003 RMK AO2 SLP174 T10061056 10078 21017 401611017 53015

TAF

KRSL 140523Z 1406/1506 33007KT P6SM BKN250 FM141700 32011KT P6SM BKN100 FM150200 33012KT P6SM SCT130

Frequencies

Recorded 128.32 MHz ASOS
Unicom 122.70 MHz CTAF/UNICOM
Warning: Do not use this data for real-world aviation or navigation. No guarantee of current accuracy is given.